createdAt,value
2022-10-13T00:02:10.644Z,49.37
2022-10-13T00:32:23.202Z,45.40
2022-10-13T01:02:35.656Z,34.90
2022-10-13T01:33:15.141Z,32.93
2022-10-13T02:03:39.561Z,33.90
2022-10-13T02:33:52.319Z,39.23
2022-10-13T03:04:03.598Z,26.83
2022-10-13T03:34:16.551Z,58.43
2022-10-13T04:04:28.636Z,48.23
2022-10-13T04:34:46.731Z,41.63
2022-10-13T05:04:58.766Z,42.30
2022-10-13T05:35:08.796Z,49.83
2022-10-13T06:05:28.927Z,36.07
2022-10-13T06:35:38.532Z,28.97
2022-10-13T07:05:48.171Z,33.60
2022-10-13T07:35:57.066Z,26.02
2022-10-13T08:06:14.547Z,18.40
2022-10-13T08:36:23.456Z,17.02
2022-10-13T09:06:42.852Z,16.63
2022-10-13T09:37:08.780Z,19.40
2022-10-13T10:07:23.337Z,16.20
2022-10-13T10:37:46.809Z,10.50
2022-10-13T11:08:32.111Z,21.27
2022-10-13T11:38:42.546Z,27.08
2022-10-13T12:08:53.544Z,23.60
2022-10-13T12:39:17.711Z,19.30
2022-10-13T13:09:39.066Z,22.67
2022-10-13T13:39:47.818Z,19.45
2022-10-13T14:10:01.834Z,20.92
2022-10-13T14:40:12.743Z,22.42
2022-10-13T15:10:24.209Z,17.88
2022-10-13T15:40:42.243Z,48.40
2022-10-13T16:10:50.958Z,40.87
2022-10-13T16:40:59.470Z,209.13
2022-10-13T17:11:11.486Z,414.50
2022-10-13T17:41:21.310Z,120.47
2022-10-13T18:11:31.178Z,91.77
2022-10-13T18:41:42.305Z,86.13
2022-10-13T19:11:58.375Z,119.07
2022-10-13T19:42:07.446Z,115.50
2022-10-13T20:12:21.444Z,127.57
2022-10-13T20:42:30.262Z,123.67
2022-10-13T21:12:39.061Z,123.80
2022-10-13T21:42:48.143Z,89.30
2022-10-13T22:13:02.397Z,78.23
2022-10-13T22:43:11.530Z,68.30
2022-10-13T23:13:20.532Z,53.63
2022-10-13T23:43:33.234Z,52.67
